createdAt,value
2022-09-28T00:00:54.704Z,7.53
2022-09-28T00:03:26.334Z,4.53
2022-09-28T00:06:06.271Z,7.37
2022-09-28T00:08:37.647Z,63.53
2022-09-28T00:11:13.673Z,6.50
2022-09-28T00:13:48.336Z,4.18
2022-09-28T00:16:23.056Z,8.57
2022-09-28T00:18:55.299Z,4.63
2022-09-28T00:21:29.860Z,6.17
2022-09-28T00:24:25.271Z,4.87
2022-09-28T00:27:01.369Z,9.87
2022-09-28T00:29:35.275Z,10.87
2022-09-28T00:32:10.416Z,7.40
2022-09-28T00:34:45.783Z,7.73
2022-09-28T00:37:19.092Z,5.35
2022-09-28T00:39:50.602Z,5.87
2022-09-28T00:42:26.177Z,5.10
2022-09-28T00:44:58.933Z,7.90
2022-09-28T00:47:41.417Z,7.53
2022-09-28T00:50:30.054Z,5.70
2022-09-28T00:53:09.397Z,8.13
2022-09-28T00:55:46.512Z,6.27
2022-09-28T00:58:27.418Z,5.90
2022-09-28T01:00:59.941Z,6.80
2022-09-28T01:03:33.590Z,6.53
2022-09-28T01:06:07.428Z,7.90
2022-09-28T01:08:39.593Z,7.20
2022-09-28T01:11:10.855Z,7.73
2022-09-28T01:13:43.313Z,8.37
2022-09-28T01:16:26.924Z,8.33
2022-09-28T01:19:26.154Z,9.30
2022-09-28T01:22:27.447Z,26.97
2022-09-28T01:25:29.340Z,10.50
2022-09-28T01:28:28.758Z,8.10
2022-09-28T01:31:20.299Z,7.77
2022-09-28T01:33:58.789Z,11.70
2022-09-28T01:36:36.800Z,7.47
2022-09-28T01:39:16.538Z,47.87
2022-09-28T01:41:52.312Z,51.50
2022-09-28T01:44:25.938Z,8.50
2022-09-28T01:47:03.548Z,11.77
2022-09-28T01:49:41.208Z,6.23
2022-09-28T01:52:30.429Z,5.60
2022-09-28T01:55:07.773Z,10.67
2022-09-28T01:57:57.833Z,7.07
2022-09-28T02:00:29.385Z,6.70
2022-09-28T02:03:08.923Z,8.27
2022-09-28T02:05:47.002Z,7.57
2022-09-28T02:08:26.890Z,10.00
2022-09-28T02:11:05.881Z,7.33
2022-09-28T02:13:40.762Z,10.33
2022-09-28T02:16:41.297Z,12.17
2022-09-28T02:19:17.230Z,12.20
2022-09-28T02:22:07.173Z,9.75
2022-09-28T02:24:52.001Z,13.53
2022-09-28T02:27:34.638Z,16.83
2022-09-28T02:30:07.680Z,31.20
2022-09-28T02:32:42.981Z,62.10
2022-09-28T02:35:17.288Z,117.97
2022-09-28T02:37:49.752Z,26.73
2022-09-28T02:40:25.268Z,53.20
2022-09-28T02:43:15.390Z,96.85
2022-09-28T02:46:16.413Z,108.57
2022-09-28T02:49:27.633Z,87.87
2022-09-28T02:52:28.284Z,91.47
2022-09-28T02:55:05.413Z,55.27
2022-09-28T02:58:15.816Z,110.97
2022-09-28T03:01:21.424Z,123.17
2022-09-28T03:04:27.233Z,64.83
2022-09-28T03:07:05.920Z,77.27
2022-09-28T03:09:42.464Z,47.87
2022-09-28T03:12:17.690Z,41.30
2022-09-28T03:15:05.923Z,46.43
2022-09-28T03:17:38.039Z,67.33
2022-09-28T03:20:10.671Z,47.87
2022-09-28T03:22:42.175Z,57.00
2022-09-28T03:25:14.716Z,36.80
2022-09-28T03:27:46.240Z,15.67
2022-09-28T03:30:17.606Z,38.13
2022-09-28T03:32:58.055Z,40.00
2022-09-28T03:35:29.316Z,69.27
2022-09-28T03:38:00.649Z,63.33
2022-09-28T03:40:32.080Z,45.20
2022-09-28T03:43:03.406Z,60.13
2022-09-28T03:45:34.692Z,40.27
2022-09-28T03:48:06.036Z,55.20
2022-09-28T03:50:37.277Z,37.97
2022-09-28T03:53:08.716Z,89.37
2022-09-28T03:55:39.944Z,33.53
2022-09-28T03:58:11.246Z,57.57
2022-09-28T04:00:42.627Z,42.80
2022-09-28T04:03:14.039Z,97.00
2022-09-28T04:05:52.841Z,45.17
2022-09-28T04:08:24.278Z,110.87
2022-09-28T04:10:57.666Z,92.63
2022-09-28T04:13:30.118Z,114.77
2022-09-28T04:16:01.897Z,116.40
2022-09-28T04:18:33.664Z,153.93
2022-09-28T04:21:07.159Z,125.03
2022-09-28T04:23:39.998Z,160.80
2022-09-28T04:26:20.808Z,126.83
2022-09-28T04:29:10.892Z,56.80
2022-09-28T04:31:46.714Z,95.47
2022-09-28T04:34:20.598Z,81.50
2022-09-28T04:36:55.068Z,78.07
2022-09-28T04:39:26.307Z,145.77
2022-09-28T04:41:57.570Z,203.50
2022-09-28T04:44:28.861Z,71.67
2022-09-28T04:47:04.831Z,113.70
2022-09-28T04:49:38.233Z,99.00
2022-09-28T04:52:09.533Z,126.73
2022-09-28T04:54:40.938Z,97.07
2022-09-28T04:57:12.240Z,69.30
2022-09-28T04:59:43.717Z,77.50
2022-09-28T05:02:15.175Z,63.10
2022-09-28T05:04:46.644Z,52.13
2022-09-28T05:07:17.877Z,73.90
2022-09-28T05:09:49.172Z,126.73
2022-09-28T05:12:21.412Z,82.47
2022-09-28T05:14:52.666Z,141.37
2022-09-28T05:17:23.905Z,126.80
2022-09-28T05:19:55.149Z,199.17
2022-09-28T05:22:26.437Z,129.77
2022-09-28T05:24:59.016Z,189.50
2022-09-28T05:27:30.354Z,68.53
2022-09-28T05:30:01.729Z,94.37
2022-09-28T05:32:32.972Z,118.07
2022-09-28T05:35:06.178Z,110.20
2022-09-28T05:37:38.601Z,106.33
2022-09-28T05:40:10.660Z,80.93
2022-09-28T05:42:42.124Z,100.80
2022-09-28T05:45:13.493Z,164.90
2022-09-28T05:47:46.129Z,124.73
2022-09-28T05:50:17.530Z,92.57
2022-09-28T05:52:57.619Z,212.67
2022-09-28T05:55:29.663Z,129.00
2022-09-28T05:58:02.763Z,55.33
2022-09-28T06:00:35.723Z,171.07
2022-09-28T06:03:11.083Z,231.00
2022-09-28T06:05:42.372Z,183.98
2022-09-28T06:08:13.960Z,92.13
2022-09-28T06:10:45.389Z,140.83
2022-09-28T06:13:16.763Z,244.43
2022-09-28T06:15:48.083Z,147.07
2022-09-28T06:18:19.338Z,259.53
2022-09-28T06:20:50.600Z,160.60
2022-09-28T06:23:21.841Z,254.47
2022-09-28T06:25:53.068Z,215.23
2022-09-28T06:28:24.803Z,206.13
2022-09-28T06:30:56.094Z,137.40
2022-09-28T06:33:27.516Z,141.00
2022-09-28T06:35:59.539Z,193.43
2022-09-28T06:38:30.782Z,184.30
2022-09-28T06:41:02.080Z,119.40
2022-09-28T06:43:34.921Z,169.70
2022-09-28T06:46:08.443Z,178.27
2022-09-28T06:48:40.293Z,132.00
2022-09-28T06:51:11.619Z,222.37
2022-09-28T06:53:42.877Z,164.73
2022-09-28T06:56:14.357Z,155.43
2022-09-28T06:58:45.598Z,153.90
2022-09-28T07:01:16.976Z,169.80
2022-09-28T07:03:51.442Z,89.00
2022-09-28T07:06:26.613Z,225.87
2022-09-28T07:09:19.424Z,82.23
2022-09-28T07:11:52.559Z,127.90
2022-09-28T07:14:40.480Z,158.40
2022-09-28T07:17:16.448Z,101.40
2022-09-28T07:19:52.603Z,201.17
2022-09-28T07:22:39.030Z,95.82
2022-09-28T07:25:14.174Z,236.27
2022-09-28T07:27:47.015Z,164.07
2022-09-28T07:30:18.343Z,135.97
2022-09-28T07:32:49.599Z,234.37
2022-09-28T07:35:21.020Z,162.10
2022-09-28T07:38:00.316Z,150.90
2022-09-28T07:40:52.002Z,194.77
2022-09-28T07:43:23.686Z,114.50
2022-09-28T07:45:55.605Z,196.97
2022-09-28T07:48:26.927Z,144.90
2022-09-28T07:51:00.099Z,159.10
2022-09-28T07:53:31.683Z,50.17
2022-09-28T07:56:06.947Z,149.30
2022-09-28T07:58:39.400Z,42.72
2022-09-28T08:01:11.840Z,147.37
2022-09-28T08:03:47.966Z,89.63
2022-09-28T08:06:19.726Z,75.57
2022-09-28T08:08:52.745Z,146.00
2022-09-28T08:11:23.994Z,67.10
2022-09-28T08:13:55.344Z,87.07
2022-09-28T08:16:27.767Z,71.20
2022-09-28T08:18:59.106Z,48.03
2022-09-28T08:21:45.669Z,101.57
2022-09-28T08:24:17.984Z,22.50
2022-09-28T08:26:49.361Z,32.77
2022-09-28T08:29:20.646Z,69.70
2022-09-28T08:31:51.880Z,74.87
2022-09-28T08:34:23.165Z,58.17
2022-09-28T08:36:57.704Z,43.53
2022-09-28T08:39:29.053Z,83.03
2022-09-28T08:42:15.645Z,27.33
2022-09-28T08:44:55.681Z,86.97
2022-09-28T08:48:03.877Z,33.73
2022-09-28T08:50:51.242Z,23.77
2022-09-28T08:53:35.043Z,21.23
2022-09-28T08:56:14.752Z,23.73
2022-09-28T08:58:54.663Z,21.77
2022-09-28T09:01:31.358Z,15.97
2022-09-28T09:04:05.427Z,19.53
2022-09-28T09:06:45.131Z,29.33
2022-09-28T09:09:34.728Z,23.80
2022-09-28T09:12:41.413Z,18.43
2022-09-28T09:15:18.696Z,22.50
2022-09-28T09:18:22.318Z,20.13
2022-09-28T09:20:59.681Z,22.63
2022-09-28T09:23:39.056Z,20.90
2022-09-28T09:26:22.536Z,18.13
2022-09-28T09:29:23.759Z,19.97
2022-09-28T09:31:55.090Z,20.80
2022-09-28T09:34:46.486Z,20.83
2022-09-28T09:37:58.522Z,25.97
2022-09-28T09:40:52.807Z,20.93
2022-09-28T09:43:49.194Z,18.10
2022-09-28T09:46:44.261Z,15.77
2022-09-28T09:49:26.791Z,17.40
2022-09-28T09:52:18.679Z,15.50
2022-09-28T09:54:59.340Z,15.97
2022-09-28T09:57:40.848Z,17.27
2022-09-28T10:00:14.282Z,16.03
2022-09-28T10:02:48.173Z,15.93
2022-09-28T10:05:27.688Z,20.27
2022-09-28T10:08:15.474Z,16.63
2022-09-28T10:10:51.413Z,17.53
2022-09-28T10:13:23.177Z,15.63
2022-09-28T10:15:55.429Z,19.53
2022-09-28T10:18:27.710Z,17.93
2022-09-28T10:21:00.079Z,17.70
2022-09-28T10:23:35.921Z,19.40
2022-09-28T10:26:13.446Z,18.92
2022-09-28T10:28:58.782Z,20.37
2022-09-28T10:31:39.191Z,16.63
2022-09-28T10:34:16.954Z,17.87
2022-09-28T10:37:05.337Z,17.33
2022-09-28T10:39:46.000Z,16.83
2022-09-28T10:42:28.540Z,19.37
2022-09-28T10:45:07.073Z,13.93
2022-09-28T10:47:42.882Z,17.20
2022-09-28T10:50:22.513Z,16.58
2022-09-28T10:52:53.804Z,17.67
2022-09-28T10:55:36.750Z,18.70
2022-09-28T10:58:25.541Z,17.47
2022-09-28T11:01:04.961Z,16.70
2022-09-28T11:03:49.582Z,15.53
2022-09-28T11:06:29.781Z,13.87
2022-09-28T11:09:05.576Z,13.20
2022-09-28T11:11:41.556Z,14.65
2022-09-28T11:14:42.159Z,18.38
2022-09-28T11:17:27.739Z,15.07
2022-09-28T11:20:01.883Z,17.03
2022-09-28T11:22:33.079Z,16.37
2022-09-28T11:25:16.268Z,16.40
2022-09-28T11:27:50.592Z,17.83
2022-09-28T11:30:37.125Z,17.87
2022-09-28T11:36:10.683Z,16.80
2022-09-28T11:39:09.072Z,18.33
2022-09-28T11:42:07.561Z,18.23
2022-09-28T11:44:44.727Z,17.27
2022-09-28T11:47:34.340Z,17.07
2022-09-28T11:50:24.726Z,15.70
2022-09-28T11:53:22.858Z,14.40
2022-09-28T11:56:12.712Z,20.03
2022-09-28T11:58:51.679Z,16.10
2022-09-28T12:01:40.108Z,17.27
2022-09-28T12:04:18.362Z,14.33
2022-09-28T12:06:55.585Z,17.10
2022-09-28T12:09:41.275Z,13.60
2022-09-28T12:12:32.298Z,19.08
2022-09-28T12:15:21.671Z,15.50
2022-09-28T12:18:00.129Z,16.07
2022-09-28T12:20:38.273Z,14.93
2022-09-28T12:23:21.073Z,13.33
2022-09-28T12:26:00.501Z,18.00
2022-09-28T12:28:56.768Z,13.47
2022-09-28T12:31:54.552Z,17.40
2022-09-28T12:34:26.109Z,16.13
2022-09-28T12:37:12.852Z,17.47
2022-09-28T12:40:08.862Z,15.70
2022-09-28T12:42:47.617Z,15.00
2022-09-28T12:46:11.682Z,14.70
2022-09-28T12:49:21.703Z,16.77
2022-09-28T12:51:54.311Z,13.37
2022-09-28T12:54:25.563Z,19.30
2022-09-28T12:57:18.493Z,14.43
2022-09-28T13:00:08.055Z,13.83
2022-09-28T13:03:06.580Z,15.40
2022-09-28T13:06:15.816Z,14.97
2022-09-28T13:09:14.861Z,14.23
2022-09-28T13:11:58.689Z,14.03
2022-09-28T13:15:08.690Z,11.57
2022-09-28T13:17:45.737Z,14.97
2022-09-28T13:20:32.260Z,11.87
2022-09-28T13:23:19.411Z,14.88
2022-09-28T13:26:10.872Z,15.20
2022-09-28T13:28:43.494Z,16.47
2022-09-28T13:31:20.232Z,13.13
2022-09-28T13:33:53.644Z,12.50
2022-09-28T13:36:24.908Z,17.83
2022-09-28T13:38:59.274Z,10.93
2022-09-28T13:41:40.280Z,10.67
2022-09-28T13:44:12.255Z,9.80
2022-09-28T13:47:13.037Z,12.97
2022-09-28T13:50:17.682Z,10.87
2022-09-28T13:53:01.208Z,9.53
2022-09-28T13:55:46.984Z,10.63
2022-09-28T13:58:51.932Z,10.55
2022-09-28T14:01:30.296Z,9.70
2022-09-28T14:04:23.981Z,11.13
2022-09-28T14:07:08.406Z,8.80
2022-09-28T14:10:07.738Z,11.93
2022-09-28T14:12:38.947Z,9.37
2022-09-28T14:15:28.548Z,10.23
2022-09-28T14:18:11.930Z,8.33
2022-09-28T14:20:57.472Z,11.23
2022-09-28T14:23:45.844Z,8.47
2022-09-28T14:26:41.480Z,9.10
2022-09-28T14:29:34.309Z,8.07
2022-09-28T14:32:08.642Z,13.43
2022-09-28T14:34:46.700Z,11.63
2022-09-28T14:37:58.042Z,8.10
2022-09-28T14:41:10.308Z,9.17
2022-09-28T14:43:44.339Z,7.90
2022-09-28T14:46:17.084Z,9.33
2022-09-28T14:49:01.654Z,8.30
2022-09-28T14:51:34.892Z,7.50
2022-09-28T14:54:12.221Z,6.63
2022-09-28T14:57:15.207Z,7.00
2022-09-28T14:59:47.686Z,7.53
2022-09-28T15:02:33.000Z,7.13
2022-09-28T15:05:22.887Z,6.47
2022-09-28T15:07:55.015Z,7.90
2022-09-28T15:10:36.602Z,8.10
2022-09-28T15:13:28.390Z,9.60
2022-09-28T15:16:06.444Z,8.10
2022-09-28T15:19:18.593Z,7.67
2022-09-28T15:21:51.149Z,5.77
2022-09-28T15:24:34.893Z,7.83
2022-09-28T15:27:18.844Z,6.47
2022-09-28T15:29:57.496Z,11.77
2022-09-28T15:32:31.629Z,12.00
2022-09-28T15:35:14.398Z,10.63
2022-09-28T15:37:49.576Z,9.43
2022-09-28T15:40:33.306Z,6.40
2022-09-28T15:43:26.890Z,8.50
2022-09-28T15:46:05.996Z,8.27
2022-09-28T15:48:51.804Z,7.43
2022-09-28T15:51:24.418Z,8.48
2022-09-28T15:54:04.464Z,6.87
2022-09-28T15:56:59.926Z,9.30
2022-09-28T15:59:39.606Z,8.43
2022-09-28T16:02:20.624Z,11.23
2022-09-28T16:04:55.127Z,7.10
2022-09-28T16:07:56.556Z,9.73
2022-09-28T16:10:33.947Z,7.87
2022-09-28T16:13:17.853Z,7.07
2022-09-28T16:15:57.941Z,8.60
2022-09-28T16:18:32.321Z,10.47
2022-09-28T16:21:28.904Z,10.13
2022-09-28T16:24:00.493Z,7.55
2022-09-28T16:26:38.877Z,9.87
2022-09-28T16:29:32.561Z,10.07
2022-09-28T16:32:35.313Z,11.17
2022-09-28T16:35:10.090Z,11.93
2022-09-28T16:37:42.504Z,11.73
2022-09-28T16:40:13.845Z,10.50
2022-09-28T16:42:49.060Z,8.43
2022-09-28T16:45:23.696Z,7.70
2022-09-28T16:47:57.344Z,12.97
2022-09-28T16:50:28.668Z,12.70
2022-09-28T16:53:38.803Z,10.47
2022-09-28T16:56:11.359Z,8.47
2022-09-28T16:58:42.729Z,10.93
2022-09-28T17:01:14.780Z,9.47
2022-09-28T17:03:47.339Z,7.83
2022-09-28T17:06:21.690Z,9.90
2022-09-28T17:08:58.270Z,11.13
2022-09-28T17:11:29.522Z,10.27
2022-09-28T17:14:03.736Z,11.90
2022-09-28T17:17:07.406Z,14.60
2022-09-28T17:19:28.683Z,12.90
2022-09-28T17:21:59.933Z,13.07
2022-09-28T17:24:31.179Z,14.53
2022-09-28T17:27:04.112Z,17.00
2022-09-28T17:29:35.357Z,14.97
2022-09-28T17:32:16.825Z,18.63
2022-09-28T17:34:55.791Z,20.67
2022-09-28T17:37:38.400Z,14.23
2022-09-28T17:40:28.141Z,14.23
2022-09-28T17:43:00.399Z,14.07
2022-09-28T17:45:33.380Z,13.13
2022-09-28T17:48:14.132Z,15.07
2022-09-28T17:50:47.581Z,22.77
2022-09-28T17:53:19.565Z,14.50
2022-09-28T17:55:51.332Z,13.40
2022-09-28T17:58:22.983Z,11.93
2022-09-28T18:00:54.231Z,15.43
2022-09-28T18:03:25.794Z,12.27
2022-09-28T18:06:12.978Z,12.87
2022-09-28T18:08:44.410Z,17.23
2022-09-28T18:11:17.296Z,15.87
2022-09-28T18:13:48.607Z,19.23
2022-09-28T18:16:20.349Z,17.40
2022-09-28T18:18:51.777Z,15.53
2022-09-28T18:21:23.230Z,12.27
2022-09-28T18:23:54.544Z,14.03
2022-09-28T18:26:25.926Z,11.47
2022-09-28T18:28:57.237Z,14.77
2022-09-28T18:31:28.626Z,10.30
2022-09-28T18:34:00.889Z,11.63
2022-09-28T18:36:35.555Z,9.47
2022-09-28T18:39:07.017Z,8.90
2022-09-28T18:41:38.582Z,9.63
2022-09-28T18:44:10.389Z,7.90
2022-09-28T18:46:42.539Z,10.50
2022-09-28T18:49:13.846Z,17.03
2022-09-28T18:51:45.141Z,15.27
2022-09-28T18:54:16.979Z,13.47
2022-09-28T18:56:51.077Z,13.47
2022-09-28T18:59:23.247Z,12.37
2022-09-28T19:01:54.764Z,11.53
2022-09-28T19:04:26.162Z,11.50
2022-09-28T19:06:57.505Z,11.83
2022-09-28T19:09:28.749Z,12.80
2022-09-28T19:12:00.754Z,9.97
2022-09-28T19:14:32.028Z,12.17
2022-09-28T19:17:04.224Z,13.83
2022-09-28T19:19:35.727Z,10.83
2022-09-28T19:22:07.042Z,7.77
2022-09-28T19:24:38.353Z,8.77
2022-09-28T19:27:09.671Z,10.93
2022-09-28T19:29:40.989Z,9.40
2022-09-28T19:32:12.593Z,14.73
2022-09-28T19:34:43.876Z,11.70
2022-09-28T19:37:15.258Z,10.83
2022-09-28T19:39:46.634Z,9.70
2022-09-28T19:42:17.877Z,10.97
2022-09-28T19:44:49.158Z,8.80
2022-09-28T19:47:21.597Z,6.07
2022-09-28T19:49:52.992Z,7.43
2022-09-28T19:52:24.285Z,8.70
2022-09-28T19:54:56.777Z,5.97
2022-09-28T19:57:31.624Z,6.87
2022-09-28T20:00:04.261Z,6.57
2022-09-28T20:02:35.596Z,6.27
2022-09-28T20:05:07.386Z,5.83
2022-09-28T20:07:39.701Z,7.33
2022-09-28T20:10:11.893Z,7.67
2022-09-28T20:12:43.222Z,8.47
2022-09-28T20:15:14.582Z,11.03
2022-09-28T20:17:45.881Z,8.43
2022-09-28T20:20:18.152Z,6.40
2022-09-28T20:22:49.393Z,5.23
2022-09-28T20:25:20.777Z,8.23
2022-09-28T20:27:52.120Z,6.90
2022-09-28T20:30:24.186Z,7.17
2022-09-28T20:32:55.545Z,7.80
2022-09-28T20:35:33.046Z,8.43
2022-09-28T20:38:08.940Z,6.90
2022-09-28T20:40:41.889Z,5.65
2022-09-28T20:43:14.429Z,6.33
2022-09-28T20:45:45.746Z,9.03
2022-09-28T20:48:17.015Z,8.33
2022-09-28T20:50:48.284Z,9.07
2022-09-28T20:53:19.530Z,8.47
2022-09-28T20:55:58.115Z,9.63
2022-09-28T20:58:29.852Z,7.87
2022-09-28T21:01:11.925Z,9.73
2022-09-28T21:03:51.511Z,12.93
2022-09-28T21:06:31.055Z,9.53
2022-09-28T21:09:03.907Z,11.80
2022-09-28T21:11:40.056Z,11.07
2022-09-28T21:14:11.525Z,11.15
2022-09-28T21:16:42.749Z,14.23
2022-09-28T21:19:14.017Z,15.13
2022-09-28T21:21:45.417Z,15.17
2022-09-28T21:24:16.811Z,10.03
2022-09-28T21:26:48.282Z,8.37
2022-09-28T21:29:19.778Z,11.50
2022-09-28T21:31:51.138Z,8.90
2022-09-28T21:34:22.392Z,10.93
2022-09-28T21:36:54.353Z,9.67
2022-09-28T21:39:26.122Z,11.70
2022-09-28T21:41:57.364Z,11.60
2022-09-28T21:44:28.607Z,9.60
2022-09-28T21:46:59.956Z,10.60
2022-09-28T21:49:31.201Z,11.03
2022-09-28T21:52:02.489Z,10.83
2022-09-28T21:54:37.149Z,9.27
2022-09-28T21:57:09.565Z,9.53
2022-09-28T21:59:40.899Z,13.80
2022-09-28T22:02:12.278Z,16.37
2022-09-28T22:04:43.553Z,14.73
2022-09-28T22:07:14.857Z,11.87
2022-09-28T22:09:48.529Z,8.97
2022-09-28T22:12:21.725Z,11.40
2022-09-28T22:14:52.974Z,10.43
2022-09-28T22:17:24.687Z,8.33
2022-09-28T22:19:55.985Z,12.37
2022-09-28T22:22:29.158Z,9.77
2022-09-28T22:25:00.977Z,8.43
2022-09-28T22:27:32.324Z,8.80
2022-09-28T22:30:03.939Z,12.13
2022-09-28T22:32:35.189Z,14.97
2022-09-28T22:35:07.064Z,10.23
2022-09-28T22:37:38.354Z,10.10
2022-09-28T22:40:12.605Z,9.80
2022-09-28T22:42:43.974Z,8.70
2022-09-28T22:45:15.220Z,9.97
2022-09-28T22:47:46.564Z,7.40
2022-09-28T22:50:17.928Z,11.10
2022-09-28T22:52:49.213Z,11.23
2022-09-28T22:55:20.457Z,7.90
2022-09-28T22:57:51.715Z,8.83
2022-09-28T23:00:22.948Z,8.73
2022-09-28T23:02:54.264Z,15.13
2022-09-28T23:05:25.558Z,11.23
2022-09-28T23:07:56.825Z,11.17
2022-09-28T23:10:28.182Z,7.20
2022-09-28T23:12:59.550Z,9.13
2022-09-28T23:15:30.851Z,7.57
2022-09-28T23:18:02.076Z,10.67
2022-09-28T23:20:33.349Z,8.60
2022-09-28T23:23:04.690Z,14.10
2022-09-28T23:25:36.018Z,12.03
2022-09-28T23:28:07.288Z,15.93
2022-09-28T23:30:39.170Z,14.83
2022-09-28T23:33:14.369Z,9.87
2022-09-28T23:35:46.216Z,9.53
2022-09-28T23:38:18.240Z,13.03
2022-09-28T23:40:49.673Z,10.53
2022-09-28T23:43:21.037Z,10.87
2022-09-28T23:45:52.465Z,13.03
2022-09-28T23:48:23.707Z,11.47
2022-09-28T23:50:55.003Z,12.83
2022-09-28T23:53:26.523Z,15.83
2022-09-28T23:55:57.880Z,12.77
2022-09-28T23:58:29.199Z,16.50
